sensor_id;sensor_type;location;lat;lon;timestamp;pressure;altitude;pressure_sealevel;temperature;humidity
53023;BME280;38913;44.338;11.206;2023-05-21T09:04:45;99688.84;;;36.30;89.57
53023;BME280;38913;44.338;11.206;2023-05-21T09:07:14;99682.75;;;32.86;100.00
53023;BME280;38913;44.338;11.206;2023-05-21T09:09:46;99676.56;;;31.84;100.00
53023;BME280;38913;44.338;11.206;2023-05-21T09:12:13;99675.22;;;31.55;100.00
53023;BME280;38913;44.338;11.206;2023-05-21T09:14:39;99677.66;;;31.21;100.00
53023;BME280;38913;44.338;11.206;2023-05-21T09:17:05;99678.53;;;30.69;100.00
53023;BME280;38913;44.338;11.206;2023-05-21T09:19:30;99662.28;;;29.60;100.00
53023;BME280;38913;44.338;11.206;2023-05-21T09:22:05;99625.03;;;28.63;100.00
53023;BME280;38913;44.338;11.206;2023-05-21T09:24:30;99629.47;;;29.08;100.00
53023;BME280;38913;44.338;11.206;2023-05-21T09:26:56;99608.72;;;29.00;100.00
53023;BME280;38913;44.338;11.206;2023-05-21T09:29:22;99575.06;;;27.98;100.00
53023;BME280;38913;44.338;11.206;2023-05-21T09:31:50;99480.19;;;27.44;100.00
53023;BME280;38913;44.338;11.206;2023-05-21T09:34:15;99426.19;;;26.77;100.00
53023;BME280;38913;44.338;11.206;2023-05-21T09:36:42;99269.38;;;26.61;100.00
53023;BME280;38913;44.338;11.206;2023-05-21T09:39:11;99272.50;;;27.75;100.00
53023;BME280;38913;44.338;11.206;2023-05-21T09:41:41;99103.72;;;27.06;100.00
53023;BME280;38913;44.338;11.206;2023-05-21T09:44:06;99053.53;;;28.14;100.00
53023;BME280;38913;44.338;11.206;2023-05-21T09:46:39;99018.34;;;27.50;100.00
53023;BME280;38913;44.338;11.206;2023-05-21T09:49:05;99127.78;;;27.69;100.00
53023;BME280;38913;44.338;11.206;2023-05-21T09:51:30;99355.88;;;28.26;100.00
53023;BME280;38913;44.338;11.206;2023-05-21T09:53:56;99319.81;;;27.81;100.00
53023;BME280;38913;44.338;11.206;2023-05-21T09:56:28;99387.34;;;27.90;100.00
53023;BME280;38913;44.338;11.206;2023-05-21T09:59:01;99318.63;;;27.54;100.00
53023;BME280;38913;44.338;11.206;2023-05-21T10:01:30;99455.63;;;28.12;100.00
53023;BME280;38913;44.338;11.206;2023-05-21T10:03:57;99435.94;;;27.74;100.00
53023;BME280;38913;44.338;11.206;2023-05-21T10:06:26;99321.47;;;27.07;100.00
53023;BME280;38913;44.338;11.206;2023-05-21T10:08:56;99268.94;;;27.87;100.00
53023;BME280;38913;44.338;11.206;2023-05-21T10:11:25;99020.00;;;27.38;100.00
53023;BME280;38913;44.338;11.206;2023-05-21T10:13:56;98950.50;;;27.23;100.00
53023;BME280;38913;44.338;11.206;2023-05-21T10:16:23;99111.28;;;27.29;100.00
53023;BME280;38913;44.338;11.206;2023-05-21T10:18:48;99001.56;;;27.28;100.00
53023;BME280;38913;44.338;11.206;2023-05-21T10:21:14;98992.00;;;26.33;100.00
53023;BME280;38913;44.338;11.206;2023-05-21T10:23:41;98759.97;;;26.36;100.00
53023;BME280;38913;44.338;11.206;2023-05-21T10:26:08;98723.16;;;26.76;100.00
53023;BME280;38913;44.338;11.206;2023-05-21T10:28:34;98907.69;;;27.41;100.00
53023;BME280;38913;44.338;11.206;2023-05-21T10:31:00;98747.19;;;26.81;100.00
53023;BME280;38913;44.338;11.206;2023-05-21T10:33:26;98746.53;;;26.24;100.00
53023;BME280;38913;44.338;11.206;2023-05-21T10:35:53;98508.47;;;25.98;100.00
53023;BME280;38913;44.338;11.206;2023-05-21T10:38:26;98466.69;;;26.08;100.00
53023;BME280;38913;44.338;11.206;2023-05-21T10:40:52;98475.09;;;25.87;100.00
53023;BME280;38913;44.338;11.206;2023-05-21T10:51:22;98315.19;;;25.86;100.00
53023;BME280;38913;44.338;11.206;2023-05-21T10:59:42;98336.16;;;26.52;100.00
53023;BME280;38913;44.338;11.206;2023-05-21T11:02:11;98334.91;;;26.69;100.00
53023;BME280;38913;44.338;11.206;2023-05-21T11:04:37;98472.69;;;26.73;100.00
53023;BME280;38913;44.338;11.206;2023-05-21T11:07:06;98480.56;;;26.42;100.00
53023;BME280;38913;44.338;11.206;2023-05-21T11:09:32;98452.50;;;26.27;100.00
53023;BME280;38913;44.338;11.206;2023-05-21T11:11:58;98372.88;;;26.37;100.00
53023;BME280;38913;44.338;11.206;2023-05-21T11:16:51;98588.69;;;26.85;100.00
53023;BME280;38913;44.338;11.206;2023-05-21T11:19:17;98434.66;;;26.82;100.00
53023;BME280;38913;44.338;11.206;2023-05-21T11:21:42;98450.59;;;26.87;100.00
53023;BME280;38913;44.338;11.206;2023-05-21T11:24:08;98629.44;;;26.61;100.00
53023;BME280;38913;44.338;11.206;2023-05-21T11:29:13;98533.94;;;26.49;100.00
53023;BME280;38913;44.338;11.206;2023-05-21T11:31:47;98451.44;;;26.32;100.00
53023;BME280;38913;44.338;11.206;2023-05-21T11:34:20;98336.06;;;26.09;100.00
53023;BME280;38913;44.338;11.206;2023-05-21T11:39:52;98364.28;;;26.32;100.00
53023;BME280;38913;44.338;11.206;2023-05-21T11:42:34;98529.09;;;26.23;100.00
53023;BME280;38913;44.338;11.206;2023-05-21T11:45:03;98537.09;;;26.35;100.00
53023;BME280;38913;44.338;11.206;2023-05-21T11:47:29;98538.50;;;26.29;100.00
53023;BME280;38913;44.338;11.206;2023-05-21T11:50:00;98503.53;;;26.52;100.00
53023;BME280;38913;44.338;11.206;2023-05-21T11:52:28;98706.63;;;26.01;100.00
53023;BME280;38913;44.338;11.206;2023-05-21T11:54:54;98720.69;;;25.66;100.00
53023;BME280;38913;44.338;11.206;2023-05-21T11:57:22;98810.19;;;25.84;100.00
53023;BME280;38913;44.338;11.206;2023-05-21T11:59:49;98991.34;;;26.64;100.00
53023;BME280;38913;44.338;11.206;2023-05-21T12:02:21;99102.97;;;26.93;100.00
53023;BME280;38913;44.338;11.206;2023-05-21T12:04:49;99165.09;;;26.81;100.00
53023;BME280;38913;44.338;11.206;2023-05-21T12:07:16;99167.53;;;26.11;100.00
53023;BME280;38913;44.338;11.206;2023-05-21T12:09:50;99145.38;;;26.18;100.00
53023;BME280;38913;44.338;11.206;2023-05-21T12:12:18;99013.34;;;26.13;100.00
53023;BME280;38913;44.338;11.206;2023-05-21T12:14:47;98876.50;;;25.35;100.00
53023;BME280;38913;44.338;11.206;2023-05-21T12:17:18;98678.94;;;25.59;100.00
53023;BME280;38913;44.338;11.206;2023-05-21T12:19:45;98499.44;;;25.90;100.00
53023;BME280;38913;44.338;11.206;2023-05-21T12:22:11;98608.09;;;25.91;100.00
53023;BME280;38913;44.338;11.206;2023-05-21T12:24:37;98589.25;;;25.62;100.00
53023;BME280;38913;44.338;11.206;2023-05-21T12:27:05;98469.88;;;25.62;100.00
53023;BME280;38913;44.338;11.206;2023-05-21T12:29:41;98537.47;;;25.85;100.00
53023;BME280;38913;44.338;11.206;2023-05-21T12:32:09;98580.09;;;26.12;100.00
53023;BME280;38913;44.338;11.206;2023-05-21T12:34:44;98629.25;;;25.89;100.00
53023;BME280;38913;44.338;11.206;2023-05-21T12:37:24;98687.63;;;26.26;100.00
53023;BME280;38913;44.338;11.206;2023-05-21T12:39:54;98729.72;;;25.86;100.00
53023;BME280;38913;44.338;11.206;2023-05-21T12:45:00;98571.72;;;25.85;100.00
53023;BME280;38913;44.338;11.206;2023-05-21T12:47:26;98538.75;;;25.59;100.00
53023;BME280;38913;44.338;11.206;2023-05-21T12:49:59;98545.47;;;25.37;100.00
53023;BME280;38913;44.338;11.206;2023-05-21T12:52:26;98159.47;;;24.88;100.00
53023;BME280;38913;44.338;11.206;2023-05-21T12:54:55;98371.78;;;24.74;100.00
53023;BME280;38913;44.338;11.206;2023-05-21T12:57:24;98825.91;;;24.82;100.00
53023;BME280;38913;44.338;11.206;2023-05-21T12:59:59;99247.09;;;25.20;100.00
53023;BME280;38913;44.338;11.206;2023-05-21T13:05:01;99562.84;;;24.95;100.00
53023;BME280;38913;44.338;11.206;2023-05-21T13:07:28;99653.81;;;25.07;100.00
53023;BME280;38913;44.338;11.206;2023-05-21T13:09:54;99666.66;;;25.37;100.00
53023;BME280;38913;44.338;11.206;2023-05-21T13:12:25;99828.88;;;25.30;100.00
53023;BME280;38913;44.338;11.206;2023-05-21T13:14:52;99733.44;;;25.31;100.00
53023;BME280;38913;44.338;11.206;2023-05-21T13:17:18;99813.41;;;25.62;100.00
53023;BME280;38913;44.338;11.206;2023-05-21T13:22:37;99837.69;;;25.71;100.00
53023;BME280;38913;44.338;11.206;2023-05-21T13:25:05;99834.94;;;25.45;100.00
53023;BME280;38913;44.338;11.206;2023-05-21T13:27:31;99861.31;;;25.16;100.00
53023;BME280;38913;44.338;11.206;2023-05-21T13:29:57;99899.00;;;24.99;100.00
53023;BME280;38913;44.338;11.206;2023-05-21T13:32:22;99948.75;;;24.78;100.00
53023;BME280;38913;44.338;11.206;2023-05-21T13:34:47;99957.63;;;25.02;100.00
53023;BME280;38913;44.338;11.206;2023-05-21T13:37:13;99947.84;;;25.06;100.00
53023;BME280;38913;44.338;11.206;2023-05-21T13:39:38;99953.13;;;24.88;100.00
53023;BME280;38913;44.338;11.206;2023-05-21T13:42:04;99918.63;;;24.76;100.00
53023;BME280;38913;44.338;11.206;2023-05-21T13:44:31;99915.22;;;25.16;100.00
53023;BME280;38913;44.338;11.206;2023-05-21T13:47:01;99923.44;;;25.52;100.00
53023;BME280;38913;44.338;11.206;2023-05-21T13:49:27;99937.47;;;25.22;100.00
53023;BME280;38913;44.338;11.206;2023-05-21T13:51:52;99941.91;;;24.95;100.00
53023;BME280;38913;44.338;11.206;2023-05-21T13:54:17;99932.50;;;24.84;100.00
53023;BME280;38913;44.338;11.206;2023-05-21T13:56:43;99929.41;;;24.53;100.00
53023;BME280;38913;44.338;11.206;2023-05-21T13:59:08;99927.75;;;25.12;100.00
53023;BME280;38913;44.338;11.206;2023-05-21T14:01:35;99922.72;;;24.97;100.00
53023;BME280;38913;44.338;11.206;2023-05-21T14:04:00;99932.59;;;24.78;100.00
53023;BME280;38913;44.338;11.206;2023-05-21T14:06:29;99922.38;;;24.44;100.00
53023;BME280;38913;44.338;11.206;2023-05-21T14:08:54;99908.97;;;24.98;100.00
53023;BME280;38913;44.338;11.206;2023-05-21T14:11:20;99925.56;;;24.91;100.00
53023;BME280;38913;44.338;11.206;2023-05-21T14:13:45;99917.66;;;24.72;100.00
53023;BME280;38913;44.338;11.206;2023-05-21T14:16:11;99916.41;;;24.78;100.00
53023;BME280;38913;44.338;11.206;2023-05-21T14:18:36;99910.66;;;24.85;100.00
53023;BME280;38913;44.338;11.206;2023-05-21T14:21:01;99907.16;;;24.62;100.00
53023;BME280;38913;44.338;11.206;2023-05-21T14:23:27;99898.19;;;24.52;100.00
53023;BME280;38913;44.338;11.206;2023-05-21T14:25:52;99899.13;;;24.71;100.00
53023;BME280;38913;44.338;11.206;2023-05-21T14:28:17;99885.09;;;24.37;100.00
53023;BME280;38913;44.338;11.206;2023-05-21T14:30:43;99875.19;;;24.23;100.00
53023;BME280;38913;44.338;11.206;2023-05-21T14:33:08;99859.19;;;24.41;100.00
53023;BME280;38913;44.338;11.206;2023-05-21T14:35:34;99863.56;;;24.60;100.00
53023;BME280;38913;44.338;11.206;2023-05-21T14:37:59;99895.63;;;24.70;100.00
53023;BME280;38913;44.338;11.206;2023-05-21T14:40:24;99899.31;;;24.51;100.00
53023;BME280;38913;44.338;11.206;2023-05-21T14:42:50;99892.56;;;24.63;100.00
53023;BME280;38913;44.338;11.206;2023-05-21T14:45:17;99902.75;;;24.98;100.00
53023;BME280;38913;44.338;11.206;2023-05-21T14:47:43;99902.25;;;25.18;100.00
53023;BME280;38913;44.338;11.206;2023-05-21T14:50:08;99910.34;;;25.27;100.00
53023;BME280;38913;44.338;11.206;2023-05-21T14:52:34;99902.34;;;25.45;100.00
53023;BME280;38913;44.338;11.206;2023-05-21T14:54:59;99899.59;;;24.95;100.00
53023;BME280;38913;44.338;11.206;2023-05-21T14:57:25;99885.72;;;25.11;100.00
53023;BME280;38913;44.338;11.206;2023-05-21T14:59:50;99893.59;;;24.76;100.00
53023;BME280;38913;44.338;11.206;2023-05-21T15:02:16;99885.59;;;24.62;100.00
53023;BME280;38913;44.338;11.206;2023-05-21T15:04:41;99863.88;;;24.12;100.00
53023;BME280;38913;44.338;11.206;2023-05-21T15:07:06;99846.84;;;24.03;100.00
53023;BME280;38913;44.338;11.206;2023-05-21T15:09:32;99854.31;;;24.06;100.00
53023;BME280;38913;44.338;11.206;2023-05-21T15:11:57;99887.47;;;24.16;100.00
53023;BME280;38913;44.338;11.206;2023-05-21T15:14:22;99885.16;;;24.23;100.00
53023;BME280;38913;44.338;11.206;2023-05-21T15:16:48;99897.16;;;24.17;100.00
53023;BME280;38913;44.338;11.206;2023-05-21T15:19:13;99890.75;;;24.26;100.00
53023;BME280;38913;44.338;11.206;2023-05-21T15:21:39;99922.72;;;24.28;100.00
53023;BME280;38913;44.338;11.206;2023-05-21T15:24:04;99920.03;;;24.28;100.00
53023;BME280;38913;44.338;11.206;2023-05-21T15:26:30;99930.38;;;24.35;100.00
53023;BME280;38913;44.338;11.206;2023-05-21T15:28:55;99932.44;;;24.15;100.00
53023;BME280;38913;44.338;11.206;2023-05-21T15:31:20;99965.59;;;24.24;100.00
53023;BME280;38913;44.338;11.206;2023-05-21T15:33:46;99960.53;;;24.09;100.00
53023;BME280;38913;44.338;11.206;2023-05-21T15:36:11;99953.56;;;24.08;100.00
53023;BME280;38913;44.338;11.206;2023-05-21T15:38:37;99968.91;;;24.07;100.00
53023;BME280;38913;44.338;11.206;2023-05-21T15:41:02;99953.25;;;23.95;100.00
53023;BME280;38913;44.338;11.206;2023-05-21T15:43:27;99950.75;;;23.85;100.00
53023;BME280;38913;44.338;11.206;2023-05-21T15:45:53;99946.19;;;23.99;100.00
53023;BME280;38913;44.338;11.206;2023-05-21T15:48:18;99959.03;;;23.88;100.00
53023;BME280;38913;44.338;11.206;2023-05-21T15:50:49;99952.53;;;24.04;100.00
53023;BME280;38913;44.338;11.206;2023-05-21T15:53:15;99949.28;;;24.07;100.00
53023;BME280;38913;44.338;11.206;2023-05-21T15:55:40;99938.31;;;24.03;100.00
53023;BME280;38913;44.338;11.206;2023-05-21T15:58:05;99946.19;;;24.13;100.00
53023;BME280;38913;44.338;11.206;2023-05-21T16:00:31;99936.91;;;23.92;100.00
53023;BME280;38913;44.338;11.206;2023-05-21T16:02:56;99945.88;;;24.01;100.00
53023;BME280;38913;44.338;11.206;2023-05-21T16:05:22;99937.50;;;23.88;100.00
53023;BME280;38913;44.338;11.206;2023-05-21T16:07:51;99945.31;;;23.76;100.00
53023;BME280;38913;44.338;11.206;2023-05-21T16:10:16;99937.16;;;23.67;100.00
53023;BME280;38913;44.338;11.206;2023-05-21T16:12:42;99938.63;;;23.59;100.00
53023;BME280;38913;44.338;11.206;2023-05-21T16:15:11;99937.72;;;23.64;100.00
53023;BME280;38913;44.338;11.206;2023-05-21T16:17:36;99936.66;;;23.65;100.00
53023;BME280;38913;44.338;11.206;2023-05-21T16:20:02;99931.38;;;23.60;100.00
53023;BME280;38913;44.338;11.206;2023-05-21T16:22:27;99928.28;;;23.53;100.00
53023;BME280;38913;44.338;11.206;2023-05-21T16:24:53;99899.63;;;23.48;100.00
53023;BME280;38913;44.338;11.206;2023-05-21T16:27:18;99921.41;;;23.60;100.00
53023;BME280;38913;44.338;11.206;2023-05-21T16:29:44;99917.53;;;23.53;100.00
53023;BME280;38913;44.338;11.206;2023-05-21T16:32:11;99903.00;;;23.54;100.00
53023;BME280;38913;44.338;11.206;2023-05-21T16:34:37;99905.56;;;23.45;100.00
53023;BME280;38913;44.338;11.206;2023-05-21T16:37:03;99923.00;;;23.48;100.00
53023;BME280;38913;44.338;11.206;2023-05-21T16:39:28;99897.81;;;23.43;100.00
53023;BME280;38913;44.338;11.206;2023-05-21T16:41:54;99879.78;;;23.44;100.00
53023;BME280;38913;44.338;11.206;2023-05-21T16:44:24;99909.75;;;23.37;100.00
53023;BME280;38913;44.338;11.206;2023-05-21T16:46:50;99872.72;;;23.34;100.00
53023;BME280;38913;44.338;11.206;2023-05-21T16:49:15;99878.09;;;23.34;100.00
53023;BME280;38913;44.338;11.206;2023-05-21T16:51:40;99883.84;;;23.27;100.00
53023;BME280;38913;44.338;11.206;2023-05-21T16:54:06;99878.25;;;23.24;100.00
53023;BME280;38913;44.338;11.206;2023-05-21T16:56:31;99881.47;;;23.26;100.00
53023;BME280;38913;44.338;11.206;2023-05-21T16:58:56;99898.16;;;23.23;100.00
53023;BME280;38913;44.338;11.206;2023-05-21T17:01:22;99902.44;;;23.24;100.00
53023;BME280;38913;44.338;11.206;2023-05-21T17:03:47;99908.63;;;23.24;100.00
53023;BME280;38913;44.338;11.206;2023-05-21T17:06:12;99903.84;;;23.21;100.00
53023;BME280;38913;44.338;11.206;2023-05-21T17:08:39;99890.50;;;23.16;100.00
53023;BME280;38913;44.338;11.206;2023-05-21T17:11:05;99898.38;;;23.12;100.00
53023;BME280;38913;44.338;11.206;2023-05-21T17:13:30;99886.91;;;23.06;100.00
53023;BME280;38913;44.338;11.206;2023-05-21T17:15:56;99878.63;;;23.03;100.00
53023;BME280;38913;44.338;11.206;2023-05-21T17:18:21;99895.06;;;23.01;100.00
53023;BME280;38913;44.338;11.206;2023-05-21T17:20:46;99894.25;;;23.01;100.00
53023;BME280;38913;44.338;11.206;2023-05-21T17:23:12;99911.97;;;23.02;100.00
53023;BME280;38913;44.338;11.206;2023-05-21T17:25:37;99900.03;;;22.94;100.00
53023;BME280;38913;44.338;11.206;2023-05-21T17:28:02;99924.50;;;22.92;100.00
53023;BME280;38913;44.338;11.206;2023-05-21T17:30:28;99936.69;;;22.85;100.00
53023;BME280;38913;44.338;11.206;2023-05-21T17:32:53;99946.66;;;22.84;100.00
53023;BME280;38913;44.338;11.206;2023-05-21T17:35:19;99942.88;;;22.85;100.00
53023;BME280;38913;44.338;11.206;2023-05-21T17:37:44;99943.44;;;22.82;100.00
53023;BME280;38913;44.338;11.206;2023-05-21T17:40:11;99947.75;;;22.64;100.00
53023;BME280;38913;44.338;11.206;2023-05-21T17:42:37;99949.34;;;22.65;100.00
53023;BME280;38913;44.338;11.206;2023-05-21T17:45:03;99912.06;;;22.63;100.00
53023;BME280;38913;44.338;11.206;2023-05-21T17:47:28;99892.88;;;22.56;100.00
53023;BME280;38913;44.338;11.206;2023-05-21T17:49:54;99873.69;;;22.44;100.00
53023;BME280;38913;44.338;11.206;2023-05-21T17:52:20;99876.31;;;22.30;100.00
53023;BME280;38913;44.338;11.206;2023-05-21T17:54:45;99877.78;;;22.22;100.00
53023;BME280;38913;44.338;11.206;2023-05-21T17:57:10;99842.16;;;22.16;100.00
53023;BME280;38913;44.338;11.206;2023-05-21T17:59:36;99697.19;;;22.07;100.00
53023;BME280;38913;44.338;11.206;2023-05-21T18:02:04;99680.03;;;21.75;100.00
53023;BME280;38913;44.338;11.206;2023-05-21T18:04:29;99670.63;;;21.78;100.00
53023;BME280;38913;44.338;11.206;2023-05-21T18:06:55;99684.31;;;21.76;100.00
53023;BME280;38913;44.338;11.206;2023-05-21T18:09:20;99682.00;;;21.69;100.00
53023;BME280;38913;44.338;11.206;2023-05-21T18:11:46;99685.69;;;21.54;100.00
53023;BME280;38913;44.338;11.206;2023-05-21T18:14:11;99648.03;;;21.46;100.00
53023;BME280;38913;44.338;11.206;2023-05-21T18:16:37;99647.75;;;21.47;100.00
53023;BME280;38913;44.338;11.206;2023-05-21T18:19:02;99648.31;;;21.44;100.00
53023;BME280;38913;44.338;11.206;2023-05-21T18:21:32;99636.97;;;21.33;100.00
53023;BME280;38913;44.338;11.206;2023-05-21T18:23:58;99626.31;;;21.28;100.00
53023;BME280;38913;44.338;11.206;2023-05-21T18:26:23;99621.81;;;21.23;100.00
53023;BME280;38913;44.338;11.206;2023-05-21T18:28:49;99635.94;;;21.10;100.00
53023;BME280;38913;44.338;11.206;2023-05-21T18:31:14;99634.19;;;21.00;100.00
53023;BME280;38913;44.338;11.206;2023-05-21T18:33:41;99639.06;;;20.98;100.00
53023;BME280;38913;44.338;11.206;2023-05-21T18:36:06;99624.31;;;20.76;100.00
53023;BME280;38913;44.338;11.206;2023-05-21T18:38:32;99633.72;;;20.73;100.00
53023;BME280;38913;44.338;11.206;2023-05-21T18:40:58;99641.06;;;20.62;100.00
53023;BME280;38913;44.338;11.206;2023-05-21T18:43:23;99616.88;;;20.48;100.00
53023;BME280;38913;44.338;11.206;2023-05-21T18:45:49;99609.47;;;20.40;100.00
53023;BME280;38913;44.338;11.206;2023-05-21T18:48:14;99617.13;;;20.47;100.00
53023;BME280;38913;44.338;11.206;2023-05-21T18:50:40;99618.34;;;20.35;100.00
53023;BME280;38913;44.338;11.206;2023-05-21T18:53:06;99602.69;;;20.24;100.00
53023;BME280;38913;44.338;11.206;2023-05-21T18:55:32;99600.59;;;20.20;100.00
53023;BME280;38913;44.338;11.206;2023-05-21T18:57:58;99600.88;;;20.19;100.00
53023;BME280;38913;44.338;11.206;2023-05-21T19:00:24;99651.59;;;20.00;100.00
53023;BME280;38913;44.338;11.206;2023-05-21T19:02:49;99641.69;;;20.00;100.00
53023;BME280;38913;44.338;11.206;2023-05-21T19:05:15;99637.50;;;19.89;100.00
53023;BME280;38913;44.338;11.206;2023-05-21T19:07:40;99645.78;;;19.87;100.00
53023;BME280;38913;44.338;11.206;2023-05-21T19:10:06;99647.00;;;19.71;100.00
53023;BME280;38913;44.338;11.206;2023-05-21T19:12:32;99644.63;;;19.64;100.00
53023;BME280;38913;44.338;11.206;2023-05-21T19:14:58;99658.34;;;19.52;100.00
53023;BME280;38913;44.338;11.206;2023-05-21T19:17:23;99669.06;;;19.41;100.00
53023;BME280;38913;44.338;11.206;2023-05-21T19:19:50;99669.88;;;19.42;100.00
53023;BME280;38913;44.338;11.206;2023-05-21T19:22:23;99677.63;;;19.44;100.00
53023;BME280;38913;44.338;11.206;2023-05-21T19:24:49;99692.38;;;19.31;100.00
53023;BME280;38913;44.338;11.206;2023-05-21T19:27:14;99693.69;;;19.38;100.00
53023;BME280;38913;44.338;11.206;2023-05-21T19:29:40;99696.38;;;19.33;100.00
53023;BME280;38913;44.338;11.206;2023-05-21T19:32:06;99705.50;;;19.22;100.00
53023;BME280;38913;44.338;11.206;2023-05-21T19:34:32;99712.00;;;19.05;100.00
53023;BME280;38913;44.338;11.206;2023-05-21T19:36:57;99690.63;;;19.00;100.00
53023;BME280;38913;44.338;11.206;2023-05-21T19:39:22;99684.47;;;19.05;100.00
53023;BME280;38913;44.338;11.206;2023-05-21T19:41:54;99694.38;;;18.94;100.00
53023;BME280;38913;44.338;11.206;2023-05-21T19:44:19;99706.97;;;18.83;100.00
53023;BME280;38913;44.338;11.206;2023-05-21T19:46:45;99713.63;;;18.80;100.00
53023;BME280;38913;44.338;11.206;2023-05-21T19:49:10;99719.22;;;18.84;100.00
53023;BME280;38913;44.338;11.206;2023-05-21T19:51:38;99717.41;;;18.69;100.00
53023;BME280;38913;44.338;11.206;2023-05-21T19:54:03;99717.69;;;18.67;100.00
53023;BME280;38913;44.338;11.206;2023-05-21T19:56:28;99727.81;;;18.70;100.00
53023;BME280;38913;44.338;11.206;2023-05-21T19:58:54;99728.63;;;18.71;100.00
53023;BME280;38913;44.338;11.206;2023-05-21T20:01:19;99717.44;;;18.64;100.00
53023;BME280;38913;44.338;11.206;2023-05-21T20:03:45;99706.53;;;18.44;100.00
53023;BME280;38913;44.338;11.206;2023-05-21T20:06:12;99704.91;;;18.49;100.00
53023;BME280;38913;44.338;11.206;2023-05-21T20:08:39;99715.88;;;18.26;100.00
53023;BME280;38913;44.338;11.206;2023-05-21T20:11:04;99713.72;;;17.82;100.00
53023;BME280;38913;44.338;11.206;2023-05-21T20:13:30;99702.00;;;17.93;100.00
53023;BME280;38913;44.338;11.206;2023-05-21T20:15:55;99691.84;;;17.90;100.00
53023;BME280;38913;44.338;11.206;2023-05-21T20:18:21;99682.78;;;17.91;100.00
53023;BME280;38913;44.338;11.206;2023-05-21T20:20:46;99696.91;;;17.81;100.00
53023;BME280;38913;44.338;11.206;2023-05-21T20:23:12;99707.88;;;18.00;100.00
53023;BME280;38913;44.338;11.206;2023-05-21T20:25:37;99718.53;;;18.05;100.00
53023;BME280;38913;44.338;11.206;2023-05-21T20:28:03;99720.44;;;18.10;100.00
53023;BME280;38913;44.338;11.206;2023-05-21T20:30:34;99724.13;;;18.04;100.00
53023;BME280;38913;44.338;11.206;2023-05-21T20:33:02;99723.09;;;18.05;100.00
53023;BME280;38913;44.338;11.206;2023-05-21T20:35:28;99713.97;;;17.96;100.00
53023;BME280;38913;44.338;11.206;2023-05-21T20:37:54;99716.88;;;17.78;100.00
53023;BME280;38913;44.338;11.206;2023-05-21T20:40:19;99710.50;;;17.80;100.00
53023;BME280;38913;44.338;11.206;2023-05-21T20:42:47;99710.50;;;17.74;100.00
53023;BME280;38913;44.338;11.206;2023-05-21T20:45:14;99699.84;;;17.59;100.00
53023;BME280;38913;44.338;11.206;2023-05-21T20:47:42;99698.75;;;17.60;100.00
53023;BME280;38913;44.338;11.206;2023-05-21T20:50:08;99700.88;;;17.63;100.00
53023;BME280;38913;44.338;11.206;2023-05-21T20:52:36;99706.69;;;17.44;100.00
53023;BME280;38913;44.338;11.206;2023-05-21T20:55:01;99701.13;;;17.46;100.00
53023;BME280;38913;44.338;11.206;2023-05-21T20:57:28;99715.25;;;17.57;100.00
53023;BME280;38913;44.338;11.206;2023-05-21T20:59:54;99723.22;;;17.46;100.00
53023;BME280;38913;44.338;11.206;2023-05-21T21:02:20;99721.88;;;17.44;100.00
53023;BME280;38913;44.338;11.206;2023-05-21T21:04:47;99728.84;;;17.60;100.00
53023;BME280;38913;44.338;11.206;2023-05-21T21:07:14;99738.66;;;17.49;100.00
53023;BME280;38913;44.338;11.206;2023-05-21T21:09:42;99736.28;;;17.43;100.00
53023;BME280;38913;44.338;11.206;2023-05-21T21:12:08;99732.78;;;17.42;100.00
53023;BME280;38913;44.338;11.206;2023-05-21T21:14:33;99733.84;;;17.36;100.00
53023;BME280;38913;44.338;11.206;2023-05-21T21:16:58;99735.44;;;17.32;100.00
53023;BME280;38913;44.338;11.206;2023-05-21T21:19:24;99739.41;;;17.34;100.00
53023;BME280;38913;44.338;11.206;2023-05-21T21:21:50;99734.09;;;17.29;100.00
53023;BME280;38913;44.338;11.206;2023-05-21T21:24:15;99721.50;;;17.09;100.00
53023;BME280;38913;44.338;11.206;2023-05-21T21:26:41;99709.59;;;17.22;100.00
53023;BME280;38913;44.338;11.206;2023-05-21T21:29:06;99719.31;;;17.01;100.00
53023;BME280;38913;44.338;11.206;2023-05-21T21:31:32;99710.03;;;16.60;100.00
53023;BME280;38913;44.338;11.206;2023-05-21T21:33:58;99703.63;;;16.56;100.00
53023;BME280;38913;44.338;11.206;2023-05-21T21:36:23;99673.91;;;16.69;100.00
53023;BME280;38913;44.338;11.206;2023-05-21T21:38:48;99670.03;;;16.93;100.00
53023;BME280;38913;44.338;11.206;2023-05-21T21:41:14;99692.50;;;16.59;100.00
53023;BME280;38913;44.338;11.206;2023-05-21T21:43:39;99688.31;;;16.74;100.00
53023;BME280;38913;44.338;11.206;2023-05-21T21:46:04;99692.91;;;16.89;100.00
53023;BME280;38913;44.338;11.206;2023-05-21T21:48:30;99703.81;;;16.87;100.00
53023;BME280;38913;44.338;11.206;2023-05-21T21:50:55;99703.59;;;16.94;100.00
53023;BME280;38913;44.338;11.206;2023-05-21T21:53:21;99712.63;;;16.98;100.00
53023;BME280;38913;44.338;11.206;2023-05-21T21:55:46;99725.75;;;17.05;100.00
53023;BME280;38913;44.338;11.206;2023-05-21T21:58:11;99727.78;;;16.92;100.00
53023;BME280;38913;44.338;11.206;2023-05-21T22:00:38;99730.91;;;16.79;100.00
53023;BME280;38913;44.338;11.206;2023-05-21T22:03:03;99714.41;;;16.77;100.00
53023;BME280;38913;44.338;11.206;2023-05-21T22:05:28;99717.66;;;16.94;100.00
53023;BME280;38913;44.338;11.206;2023-05-21T22:07:55;99725.63;;;16.89;100.00
53023;BME280;38913;44.338;11.206;2023-05-21T22:10:21;99726.16;;;16.86;100.00